Adelphia, New Jersey
Current Conditions -  °F | °C
As of 9:35 AM on Thursday 29 Jan 2015 (Local Time) from KBLM Reporting Station
Clear Clear  
Wind Chill: 23°   Ceiling: Unl
Heat Index: 23°   Visibility: 10mi
Dew Point:   Wind: 0mph
Humidity: 43%   Direction: NA
Pressure: 30.31"   Gusts: NA
Location:  40.22°N, 74.26°W
Report Text: KBLM 291435Z AUTO 00000KT 10SM CLR M05/M16 A3031 RMK AO1
Loading
Personal Weather Stations






























Interactive Weather Map New forecast layout! Learn more

10-Day Weather Forecast

Advertisements
Track Severe Weather on mobile